Terminal Aerodrome Forecast
Issued by NWS

Home | Current Version | Previous Version | Text Only | Print | Product List | Glossary On
Versions: 1 2 3 4 5 6 7 8 9 10 11 12 13 14 15
000
FTUS46 KPDT 232300
TAFBDN
TAF
KBDN 232320Z 2400/2424 20009KT P6SM VCSH SCT060 OVC100
     FM240600 VRB05KT P6SM SCT050 OVC080
     FM241200 18007KT P6SM -RA OVC050
     FM242000 32008KT P6SM -RA OVC050=

USA.gov is the U.S. government's official web portal to all federal, state and local government web resources and services.